Time;durP1;ratioP1;P1;durP2;ratioP2;P2;SDS_P1;SDS_P2;PMS_P1;PMS_P2;Temp;Humidity;BMP_temperature;BMP_pressure;BME280_temperature;BME280_humidity;BME280_pressure;Samples;Min_cycle;Max_cycle;Signal;HPM_P1;HPM_P2
2022/12/24 00:01:34;;;;;;;8.60;2.90;;;18.40;57.30;;;;;;5054087;28;20257;-61
2022/12/24 00:04:00;;;;;;;7.53;2.50;;;18.40;57.30;;;;;;5053401;28;20193;-62
2022/12/24 00:06:25;;;;;;;7.45;2.65;;;18.40;57.30;;;;;;5054111;28;20189;-61
2022/12/24 00:08:51;;;;;;;6.05;2.60;;;18.40;57.20;;;;;;5053832;28;20269;-62
2022/12/24 00:11:17;;;;;;;7.15;2.42;;;18.30;57.90;;;;;;5053260;28;20258;-62
2022/12/24 00:13:42;;;;;;;8.27;2.65;;;18.40;57.30;;;;;;5053922;28;20179;-61
2022/12/24 00:16:08;;;;;;;7.55;2.30;;;18.30;57.20;;;;;;5053810;28;20262;-62
2022/12/24 00:18:33;;;;;;;7.43;2.97;;;18.30;57.20;;;;;;5052775;28;20175;-62
2022/12/24 00:21:00;;;;;;;7.80;2.92;;;18.30;57.20;;;;;;5053883;28;20207;-61
2022/12/24 00:23:26;;;;;;;6.47;2.53;;;18.30;57.20;;;;;;5053834;28;20171;-61
2022/12/24 00:25:51;;;;;;;6.32;2.38;;;18.30;57.20;;;;;;5052720;28;20175;-60
2022/12/24 00:28:17;;;;;;;7.90;2.83;;;18.30;57.20;;;;;;5053909;28;20200;-61
2022/12/24 00:30:42;;;;;;;9.73;2.90;;;18.20;57.20;;;;;;5053517;28;20205;-61
2022/12/24 00:33:08;;;;;;;8.15;2.83;;;18.20;57.20;;;;;;5053014;28;20209;-61
2022/12/24 00:35:34;;;;;;;9.75;2.97;;;18.20;57.20;;;;;;5053448;28;20182;-61
2022/12/24 00:38:00;;;;;;;7.00;2.75;;;18.20;57.20;;;;;;5053387;28;20203;-61
2022/12/24 00:40:25;;;;;;;7.80;3.10;;;18.20;57.20;;;;;;5052944;28;20238;-61
2022/12/24 00:42:51;;;;;;;8.52;3.60;;;18.20;57.20;;;;;;5053340;28;20185;-61
2022/12/24 00:45:16;;;;;;;8.32;3.17;;;18.20;57.20;;;;;;5052952;28;20179;-61
2022/12/24 00:47:42;;;;;;;6.85;2.67;;;18.20;57.20;;;;;;5053171;28;20167;-61
2022/12/24 00:50:08;;;;;;;8.70;2.75;;;18.10;57.20;;;;;;5053410;28;20689;-61
2022/12/24 00:52:33;;;;;;;9.50;3.25;;;18.20;57.20;;;;;;5052371;28;20186;-61
2022/12/24 00:54:59;;;;;;;8.80;2.97;;;18.20;57.20;;;;;;5053283;28;20178;-61
2022/12/24 00:57:24;;;;;;;9.30;2.80;;;18.10;57.20;;;;;;5053184;28;20213;-60
2022/12/24 00:59:50;;;;;;;6.00;2.45;;;18.10;57.10;;;;;;5052172;28;20198;-60
2022/12/24 01:02:16;;;;;;;8.00;3.10;;;18.10;57.10;;;;;;5053250;28;20175;-60
2022/12/24 01:05:14;;;;;;;7.88;2.67;;;18.10;57.20;;;;;;5052974;28;20182;-61
2022/12/24 01:07:33;;;;;;;6.03;2.60;;;18.10;57.20;;;;;;5050971;28;20187;-61
2022/12/24 01:09:58;;;;;;;7.55;2.70;;;18.10;57.20;;;;;;5053294;28;20174;-61
2022/12/24 01:12:24;;;;;;;9.68;2.78;;;18.10;57.20;;;;;;5053217;28;20293;-61
2022/12/24 01:14:49;;;;;;;9.38;2.60;;;18.10;57.10;;;;;;5051769;28;20525;-61
2022/12/24 01:17:15;;;;;;;6.25;3.15;;;18.10;57.10;;;;;;5053112;28;20179;-61
2022/12/24 01:19:41;;;;;;;6.95;2.67;;;18.00;57.10;;;;;;5052634;28;20535;-61
2022/12/24 01:22:06;;;;;;;8.60;3.38;;;18.00;57.10;;;;;;5052096;28;20186;-62
2022/12/24 01:24:32;;;;;;;5.28;2.47;;;18.00;57.10;;;;;;5052348;28;20186;-61
2022/12/24 01:26:57;;;;;;;9.02;2.70;;;18.00;57.10;;;;;;5052830;28;20262;-61
2022/12/24 01:29:23;;;;;;;12.43;3.13;;;18.00;57.00;;;;;;5052214;28;20258;-60
2022/12/24 01:31:48;;;;;;;7.63;2.95;;;18.00;57.00;;;;;;5052534;28;20508;-61
2022/12/24 01:34:14;;;;;;;6.43;2.35;;;18.00;57.10;;;;;;5052316;28;20182;-61
2022/12/24 01:36:39;;;;;;;9.77;3.15;;;18.00;57.10;;;;;;5051738;28;20171;-61
2022/12/24 01:39:05;;;;;;;12.77;3.35;;;18.00;57.10;;;;;;5052928;28;20179;-61
2022/12/24 01:44:26;;;;;;;6.05;2.45;;;17.90;57.00;;;;;;5052826;28;20175;-61
2022/12/24 01:47:12;;;;;;;7.95;3.10;;;17.90;57.00;;;;;;5052393;28;20179;-61
2022/12/24 01:49:46;;;;;;;8.65;2.72;;;17.90;57.70;;;;;;5036058;28;20630;-61
2022/12/24 01:52:21;;;;;;;9.57;3.08;;;17.90;57.00;;;;;;5052694;28;20179;-61
2022/12/24 01:54:51;;;;;;;8.10;3.22;;;17.90;57.00;;;;;;5052314;28;20553;-60
2022/12/24 01:57:25;;;;;;;7.50;2.90;;;17.90;57.60;;;;;;5050648;28;20189;-60
2022/12/24 01:59:52;;;;;;;7.38;2.88;;;17.90;57.10;;;;;;5052373;28;20182;-60
2022/12/24 02:02:18;;;;;;;8.20;3.25;;;17.90;57.00;;;;;;5051551;28;20556;-60
2022/12/24 02:04:49;;;;;;;9.05;2.90;;;17.90;57.00;;;;;;5050510;28;20681;-61
2022/12/24 02:07:14;;;;;;;9.20;3.05;;;17.90;57.00;;;;;;5051321;28;20183;-61
2022/12/24 02:09:40;;;;;;;9.18;2.97;;;17.90;57.00;;;;;;5033773;28;20233;-61
2022/12/24 02:12:05;;;;;;;8.30;2.78;;;17.90;57.00;;;;;;5051186;28;20172;-61
2022/12/24 02:14:31;;;;;;;7.05;2.83;;;17.80;56.90;;;;;;5052250;28;20187;-59
2022/12/24 02:16:56;;;;;;;9.43;3.35;;;17.80;56.90;;;;;;5051884;28;20179;-61
2022/12/24 02:19:34;;;;;;;10.70;3.38;;;17.80;56.90;;;;;;5052261;28;20198;-61
2022/12/24 02:22:05;;;;;;;10.10;3.47;;;17.80;56.90;;;;;;5052364;28;20218;-60
2022/12/24 02:25:09;;;;;;;8.63;2.85;;;17.80;57.00;;;;;;5051245;28;20537;-61
2022/12/24 02:27:52;;;;;;;7.72;3.20;;;17.80;56.90;;;;;;5040323;28;20183;-61
2022/12/24 02:30:30;;;;;;;9.15;3.65;;;17.80;56.90;;;;;;5035611;28;20543;-60
2022/12/24 02:33:23;;;;;;;7.88;2.88;;;17.80;56.90;;;;;;5051587;28;20240;-61
2022/12/24 02:36:01;;;;;;;6.93;3.17;;;17.80;56.90;;;;;;5051862;28;20621;-61
2022/12/24 02:38:41;;;;;;;7.75;3.35;;;17.80;56.90;;;;;;5035230;28;20556;-61
2022/12/24 02:41:14;;;;;;;9.05;3.03;;;17.80;56.90;;;;;;5034807;28;20624;-61
2022/12/24 02:43:41;;;;;;;8.32;3.35;;;17.80;56.90;;;;;;5034930;28;20179;-61
2022/12/24 02:46:10;;;;;;;8.65;2.83;;;17.80;56.90;;;;;;5035040;28;20262;-61
2022/12/24 02:48:36;;;;;;;7.63;3.08;;;17.70;56.90;;;;;;5054090;28;20637;-61
2022/12/24 02:51:04;;;;;;;6.50;2.80;;;17.70;56.90;;;;;;5054481;28;20194;-61
2022/12/24 02:53:30;;;;;;;8.13;3.17;;;17.70;56.90;;;;;;5054870;28;20179;-61
2022/12/24 02:56:25;;;;;;;8.48;3.30;;;17.80;56.90;;;;;;5055380;28;20175;-60
2022/12/24 02:59:06;;;;;;;9.05;3.15;;;17.70;56.90;;;;;;5054706;28;20247;-60
2022/12/24 03:01:55;;;;;;;9.25;3.22;;;17.70;56.90;;;;;;5053955;28;20766;-60
2022/12/24 03:04:38;;;;;;;8.57;3.10;;;17.70;56.90;;;;;;5055393;28;20186;-61
2022/12/24 03:07:20;;;;;;;7.72;3.38;;;17.70;56.90;;;;;;5054740;28;20256;-61
2022/12/24 03:10:02;;;;;;;8.52;2.97;;;17.70;56.90;;;;;;5038705;28;20175;-61
2022/12/24 03:12:54;;;;;;;5.97;2.63;;;17.70;56.90;;;;;;5054113;28;20236;-62
2022/12/24 03:15:25;;;;;;;9.35;3.30;;;17.70;56.90;;;;;;5055142;28;20219;-60
2022/12/24 03:17:52;;;;;;;6.60;2.60;;;17.60;56.80;;;;;;5037718;28;20183;-60
2022/12/24 03:20:26;;;;;;;7.68;2.80;;;17.70;56.90;;;;;;5036768;28;20292;-60
2022/12/24 03:22:51;;;;;;;7.22;2.85;;;17.60;56.80;;;;;;5037905;28;20193;-60
2022/12/24 03:25:17;;;;;;;8.23;2.88;;;17.60;56.80;;;;;;5055191;28;20179;-60
2022/12/24 03:27:43;;;;;;;6.55;2.80;;;17.60;56.80;;;;;;5036418;28;20182;-60
2022/12/24 03:30:10;;;;;;;7.90;2.55;;;17.70;56.90;;;;;;5053739;28;20630;-60
2022/12/24 03:32:37;;;;;;;6.90;2.72;;;17.60;56.80;;;;;;5053690;28;20187;-60
2022/12/24 03:35:02;;;;;;;6.53;2.65;;;17.60;56.80;;;;;;5054139;28;20175;-60
2022/12/24 03:37:28;;;;;;;11.05;3.08;;;17.60;56.80;;;;;;5053479;28;20186;-61
2022/12/24 03:39:53;;;;;;;6.47;3.17;;;17.60;56.80;;;;;;5054300;28;20629;-60
2022/12/24 03:42:19;;;;;;;7.30;2.53;;;17.60;56.80;;;;;;5053825;28;20175;-60
2022/12/24 03:44:44;;;;;;;7.53;2.90;;;17.60;56.80;;;;;;5054482;28;20174;-60
2022/12/24 03:47:10;;;;;;;5.80;2.72;;;17.60;56.80;;;;;;5054714;28;20183;-61
2022/12/24 03:49:35;;;;;;;6.13;2.67;;;17.60;56.80;;;;;;5053416;28;20163;-61
2022/12/24 03:52:01;;;;;;;6.28;2.80;;;17.60;56.80;;;;;;5054377;28;20183;-60
2022/12/24 03:54:26;;;;;;;6.20;2.47;;;17.50;56.80;;;;;;5054363;28;20178;-60
2022/12/24 03:56:52;;;;;;;9.80;3.13;;;17.50;56.80;;;;;;5053069;28;20266;-60
2022/12/24 03:59:17;;;;;;;8.18;3.10;;;17.60;56.80;;;;;;5054458;28;20207;-60
2022/12/24 04:01:43;;;;;;;6.97;2.40;;;17.50;56.80;;;;;;5054204;28;20742;-60
2022/12/24 04:04:08;;;;;;;7.82;2.92;;;17.60;56.80;;;;;;5053689;28;20167;-60
2022/12/24 04:06:34;;;;;;;7.90;3.20;;;17.50;56.90;;;;;;5053994;28;20258;-60
2022/12/24 04:09:03;;;;;;;6.97;3.05;;;17.50;56.80;;;;;;5054184;28;20167;-60
2022/12/24 04:11:29;;;;;;;7.63;2.80;;;17.50;56.80;;;;;;5054188;28;20179;-60
2022/12/24 04:13:55;;;;;;;7.95;2.88;;;17.50;56.80;;;;;;5053957;28;20689;-61
2022/12/24 04:16:20;;;;;;;5.90;2.38;;;17.50;56.80;;;;;;5053277;28;20366;-60
2022/12/24 04:18:46;;;;;;;7.05;2.35;;;17.50;56.80;;;;;;5053742;28;20542;-60
2022/12/24 04:21:11;;;;;;;6.00;2.58;;;17.50;56.80;;;;;;5053989;28;20230;-60
2022/12/24 04:23:37;;;;;;;7.43;2.80;;;17.50;56.80;;;;;;5052893;28;20262;-60
2022/12/24 04:26:04;;;;;;;7.47;2.80;;;17.50;56.80;;;;;;5053996;28;20179;-60
2022/12/24 04:28:30;;;;;;;8.60;3.22;;;17.50;56.80;;;;;;5053854;28;20543;-60
2022/12/24 04:31:03;;;;;;;5.93;2.63;;;17.50;56.80;;;;;;5053072;28;20662;-61
2022/12/24 04:33:29;;;;;;;5.80;2.63;;;17.50;56.80;;;;;;5053839;28;20228;-61
2022/12/24 04:35:58;;;;;;;6.43;2.50;;;17.50;56.80;;;;;;5053510;28;20174;-61
2022/12/24 04:38:23;;;;;;;9.30;3.67;;;17.50;57.40;;;;;;5053149;28;20178;-62
2022/12/24 04:40:58;;;;;;;9.48;3.60;;;17.50;56.80;;;;;;5053384;28;20571;-61
2022/12/24 04:43:23;;;;;;;7.10;2.60;;;17.50;56.80;;;;;;5053638;28;20182;-61
2022/12/24 04:45:49;;;;;;;5.50;2.35;;;17.50;56.80;;;;;;5052488;28;20652;-61
2022/12/24 04:48:14;;;;;;;6.82;3.08;;;17.40;56.70;;;;;;5053331;28;20652;-61
2022/12/24 04:50:40;;;;;;;9.80;3.35;;;17.40;56.80;;;;;;5053123;28;20735;-62
2022/12/24 04:53:05;;;;;;;7.53;2.65;;;17.40;56.70;;;;;;5052493;28;20262;-61
2022/12/24 04:55:31;;;;;;;7.50;2.55;;;17.40;56.70;;;;;;5053019;28;20269;-61
2022/12/24 04:57:56;;;;;;;4.82;2.55;;;17.40;56.80;;;;;;5053259;28;20220;-61
2022/12/24 05:00:22;;;;;;;6.63;2.60;;;17.40;56.80;;;;;;5052598;28;20315;-61
2022/12/24 05:02:47;;;;;;;6.55;2.80;;;17.40;56.80;;;;;;5052900;28;20293;-61
2022/12/24 05:05:13;;;;;;;6.63;2.47;;;17.40;56.80;;;;;;5053262;28;20171;-61
2022/12/24 05:07:38;;;;;;;6.00;2.65;;;17.40;56.80;;;;;;5052330;28;20189;-61
2022/12/24 05:10:05;;;;;;;7.32;2.50;;;17.40;56.80;;;;;;5052540;28;20183;-61
2022/12/24 05:12:30;;;;;;;6.35;3.17;;;17.40;56.80;;;;;;5052324;28;20171;-61
2022/12/24 05:14:56;;;;;;;7.47;2.90;;;17.40;56.80;;;;;;5053017;28;20211;-62
2022/12/24 05:17:21;;;;;;;8.55;3.33;;;17.40;56.80;;;;;;5052972;28;20175;-62
2022/12/24 05:19:47;;;;;;;6.57;2.70;;;17.40;56.80;;;;;;5051802;28;20185;-62
2022/12/24 05:27:40;;;;;;;6.95;2.55;;;17.40;56.80;;;;;;5051959;28;20272;-61
2022/12/24 05:30:07;;;;;;;7.13;2.90;;;17.30;56.80;;;;;;5052964;28;20220;-61
2022/12/24 05:32:32;;;;;;;7.63;2.90;;;17.30;56.80;;;;;;5052438;28;20652;-61
2022/12/24 05:34:58;;;;;;;7.05;2.55;;;17.30;56.80;;;;;;5052204;28;20179;-61
2022/12/24 05:37:23;;;;;;;8.32;2.38;;;17.30;56.80;;;;;;5052850;28;20751;-62
2022/12/24 05:39:49;;;;;;;8.05;2.97;;;17.30;57.50;;;;;;5052315;28;20676;-62
2022/12/24 05:42:14;;;;;;;6.30;2.30;;;17.30;56.80;;;;;;5051892;28;20689;-61
2022/12/24 05:44:40;;;;;;;5.65;2.50;;;17.30;56.90;;;;;;5052280;28;20210;-62
2022/12/24 05:47:05;;;;;;;6.88;3.15;;;17.30;56.80;;;;;;5052566;28;20289;-62
2022/12/24 05:49:31;;;;;;;6.55;2.97;;;17.30;56.90;;;;;;5051673;28;20223;-61
2022/12/24 05:51:56;;;;;;;7.25;2.75;;;17.30;56.90;;;;;;5052698;28;20179;-61
2022/12/24 05:54:22;;;;;;;7.18;2.65;;;17.30;56.80;;;;;;5052763;28;20171;-61
2022/12/24 05:56:47;;;;;;;6.80;2.85;;;17.30;56.90;;;;;;5051627;28;20171;-61
2022/12/24 05:59:13;;;;;;;9.50;3.10;;;17.30;56.90;;;;;;5052505;28;20171;-61
2022/12/24 06:01:38;;;;;;;5.63;2.47;;;17.30;56.90;;;;;;5051749;28;20241;-61
2022/12/24 06:04:04;;;;;;;7.57;2.63;;;17.30;56.90;;;;;;5052543;28;20172;-61
2022/12/24 06:06:29;;;;;;;6.15;2.50;;;17.30;56.90;;;;;;5052703;28;20179;-61
2022/12/24 06:08:55;;;;;;;6.95;2.88;;;17.20;56.80;;;;;;5051558;28;20169;-61
2022/12/24 06:11:22;;;;;;;8.15;2.92;;;17.30;56.90;;;;;;5052471;28;20262;-61
2022/12/24 06:13:48;;;;;;;7.05;2.60;;;17.30;56.90;;;;;;5052172;28;20175;-61
2022/12/24 06:16:15;;;;;;;8.15;2.45;;;17.30;56.90;;;;;;5051602;28;20246;-61
2022/12/24 06:18:41;;;;;;;9.93;2.92;;;17.30;56.90;;;;;;5052107;28;20634;-61
2022/12/24 06:21:06;;;;;;;8.40;2.67;;;17.20;56.90;;;;;;5055233;28;20268;-61
2022/12/24 06:23:33;;;;;;;9.82;3.20;;;17.30;56.90;;;;;;5055155;28;20172;-61
2022/12/24 06:26:02;;;;;;;5.70;2.13;;;17.30;56.90;;;;;;5056203;28;20179;-61
2022/12/24 06:28:32;;;;;;;8.45;2.70;;;17.20;56.80;;;;;;5056262;28;20189;-61
2022/12/24 06:30:57;;;;;;;7.28;2.50;;;17.30;56.90;;;;;;5055646;28;20187;-61
2022/12/24 06:33:23;;;;;;;7.30;2.70;;;17.30;56.90;;;;;;5055931;28;20175;-61
2022/12/24 06:35:48;;;;;;;6.60;2.58;;;17.20;56.90;;;;;;5055787;28;20182;-61
2022/12/24 06:38:14;;;;;;;8.13;3.15;;;17.20;56.90;;;;;;5055198;28;20171;-61
2022/12/24 06:40:41;;;;;;;7.18;2.67;;;17.20;56.90;;;;;;5055479;28;20207;-61
2022/12/24 06:43:06;;;;;;;5.90;2.72;;;17.20;56.90;;;;;;5055775;28;20641;-62
2022/12/24 06:45:32;;;;;;;9.85;2.92;;;17.20;56.90;;;;;;5054834;28;20183;-61
2022/12/24 06:47:58;;;;;;;9.23;3.08;;;17.20;56.90;;;;;;5055902;28;20181;-61
2022/12/24 06:50:23;;;;;;;5.82;2.60;;;17.20;56.90;;;;;;5055898;28;20171;-61
2022/12/24 06:52:49;;;;;;;6.47;2.25;;;17.20;56.90;;;;;;5054699;28;20621;-61
2022/12/24 06:55:14;;;;;;;6.38;2.40;;;17.20;56.90;;;;;;5055627;28;20167;-61
2022/12/24 06:57:40;;;;;;;7.20;2.92;;;17.20;56.90;;;;;;5055505;28;20591;-61
2022/12/24 07:00:07;;;;;;;7.55;2.42;;;17.10;56.90;;;;;;5054835;28;20163;-60
2022/12/24 07:02:33;;;;;;;8.43;2.80;;;17.20;56.90;;;;;;5055016;28;20533;-60
2022/12/24 07:04:58;;;;;;;5.63;2.95;;;17.20;56.90;;;;;;5054694;28;20182;-61
2022/12/24 07:07:24;;;;;;;7.25;2.88;;;17.20;56.90;;;;;;5055490;28;20186;-61
2022/12/24 07:09:49;;;;;;;8.13;2.90;;;17.10;56.90;;;;;;5054976;28;20171;-61
2022/12/24 07:12:15;;;;;;;9.30;2.70;;;17.20;56.90;;;;;;5054453;28;20175;-61
2022/12/24 07:14:40;;;;;;;6.18;2.50;;;17.20;56.90;;;;;;5054966;28;20258;-60
2022/12/24 07:17:06;;;;;;;7.57;2.95;;;17.20;56.90;;;;;;5055440;28;20180;-61
2022/12/24 07:19:32;;;;;;;5.80;2.90;;;17.10;56.90;;;;;;5054228;28;20277;-61
2022/12/24 07:21:58;;;;;;;6.18;2.65;;;17.20;57.00;;;;;;5055278;28;20269;-61
2022/12/24 07:24:24;;;;;;;7.55;3.05;;;17.10;56.90;;;;;;5054937;28;20212;-60
2022/12/24 07:26:49;;;;;;;8.80;2.75;;;17.20;56.90;;;;;;5054181;28;20240;-61
2022/12/24 07:29:15;;;;;;;8.48;3.03;;;17.20;56.90;;;;;;5055104;28;20195;-61
2022/12/24 07:31:40;;;;;;;6.47;2.65;;;17.10;56.90;;;;;;5054097;28;20183;-60
2022/12/24 07:34:06;;;;;;;7.68;2.95;;;17.10;56.90;;;;;;5054234;28;20167;-61
2022/12/24 07:36:31;;;;;;;5.95;2.53;;;17.10;56.90;;;;;;5054709;28;20178;-61
2022/12/24 07:38:57;;;;;;;7.43;3.20;;;17.10;56.90;;;;;;5054767;28;20175;-61
2022/12/24 07:41:22;;;;;;;6.35;2.60;;;17.10;56.90;;;;;;5053855;28;20566;-61
2022/12/24 07:43:48;;;;;;;6.07;2.80;;;17.10;56.90;;;;;;5054545;28;20171;-61
2022/12/24 07:46:13;;;;;;;7.93;2.95;;;17.10;57.00;;;;;;5054840;28;20281;-61
2022/12/24 07:48:39;;;;;;;8.70;3.58;;;17.10;56.90;;;;;;5053657;28;20225;-61
2022/12/24 07:51:04;;;;;;;6.68;2.70;;;17.10;56.90;;;;;;5054622;28;20170;-61
2022/12/24 07:53:30;;;;;;;10.35;3.95;;;17.10;57.00;;;;;;5054564;28;20171;-61
2022/12/24 07:55:56;;;;;;;8.05;3.10;;;17.10;57.00;;;;;;5053695;28;20253;-61
2022/12/24 07:58:22;;;;;;;6.85;3.17;;;17.10;57.00;;;;;;5054352;28;20301;-60
2022/12/24 08:00:47;;;;;;;5.88;2.45;;;17.00;57.00;;;;;;5054059;28;20207;-60
2022/12/24 08:03:16;;;;;;;8.07;3.30;;;17.10;57.00;;;;;;5053817;28;20202;-60
2022/12/24 08:05:41;;;;;;;8.45;3.00;;;17.10;57.00;;;;;;5054179;28;20226;-61
2022/12/24 08:08:07;;;;;;;7.22;3.15;;;17.10;57.00;;;;;;5036642;28;20205;-62
2022/12/24 08:10:32;;;;;;;7.18;3.22;;;17.00;57.00;;;;;;5053364;28;20206;-62
2022/12/24 08:12:58;;;;;;;7.05;2.63;;;17.00;57.00;;;;;;5054388;28;20203;-61
2022/12/24 08:15:23;;;;;;;5.93;2.53;;;17.00;57.00;;;;;;5053195;28;20215;-60
2022/12/24 08:17:49;;;;;;;7.78;3.00;;;17.00;57.00;;;;;;5053795;28;20175;-59
2022/12/24 08:20:16;;;;;;;7.03;2.42;;;17.00;56.90;;;;;;5053943;28;20199;-60
2022/12/24 08:22:42;;;;;;;8.18;2.85;;;17.00;57.00;;;;;;5052895;28;20206;-60
2022/12/24 08:25:08;;;;;;;8.00;3.05;;;17.00;57.00;;;;;;5054015;28;20179;-59
2022/12/24 08:27:34;;;;;;;5.25;2.70;;;17.00;57.00;;;;;;5054202;28;20179;-61
2022/12/24 08:29:59;;;;;;;7.75;2.67;;;17.00;57.00;;;;;;5053185;28;20258;-61
2022/12/24 08:32:25;;;;;;;7.63;2.70;;;17.00;57.00;;;;;;5053865;28;20171;-67
2022/12/24 08:34:50;;;;;;;8.27;2.83;;;17.00;57.10;;;;;;5053158;28;20232;-76
2022/12/24 08:37:16;;;;;;;6.78;3.15;;;17.00;57.30;;;;;;5054016;28;20171;-76
2022/12/24 08:39:41;;;;;;;8.45;3.17;;;17.00;57.80;;;;;;5053037;28;20175;-75
2022/12/24 08:42:07;;;;;;;6.85;2.65;;;17.00;57.30;;;;;;5053776;28;20215;-70
2022/12/24 08:44:32;;;;;;;7.85;2.90;;;17.00;57.70;;;;;;5051669;28;20229;-71
2022/12/24 08:46:58;;;;;;;9.13;3.17;;;17.10;57.50;;;;;;5053671;28;20270;-70
2022/12/24 08:49:23;;;;;;;8.20;3.03;;;17.10;57.40;;;;;;5053452;28;20266;-72
2022/12/24 08:51:50;;;;;;;8.88;2.78;;;17.10;57.40;;;;;;5052231;28;20211;-71
2022/12/24 08:54:15;;;;;;;8.77;2.90;;;17.10;57.30;;;;;;5053401;28;20971;-72
2022/12/24 08:56:41;;;;;;;8.07;2.92;;;17.10;57.40;;;;;;5052998;28;20661;-69
2022/12/24 08:59:06;;;;;;;7.70;2.78;;;17.10;57.40;;;;;;5052533;28;20214;-69
2022/12/24 09:01:33;;;;;;;7.75;2.97;;;17.10;57.40;;;;;;5052917;28;20218;-70
2022/12/24 09:04:00;;;;;;;7.68;3.05;;;17.10;57.40;;;;;;5053228;28;20179;-69
2022/12/24 09:06:25;;;;;;;5.50;2.63;;;17.20;57.40;;;;;;5050685;28;20189;-65
2022/12/24 09:08:51;;;;;;;8.85;2.90;;;17.20;57.50;;;;;;5052651;28;20303;-68
2022/12/24 09:11:17;;;;;;;7.63;2.67;;;17.10;57.70;;;;;;5053102;28;20174;-77
2022/12/24 09:13:43;;;;;;;6.28;2.85;;;17.10;57.80;;;;;;5052034;28;20167;-81
2022/12/24 09:16:09;;;;;;;10.20;3.10;;;17.10;57.60;;;;;;5053316;28;20234;-77
2022/12/24 09:18:34;;;;;;;8.75;3.20;;;17.10;57.60;;;;;;5051880;28;20171;-72
2022/12/24 09:21:00;;;;;;;9.32;3.00;;;17.10;58.00;;;;;;5052883;28;20230;-74
2022/12/24 09:23:26;;;;;;;8.52;2.63;;;17.10;57.90;;;;;;5052949;28;20565;-74
2022/12/24 09:25:51;;;;;;;7.40;2.70;;;17.20;58.00;;;;;;5052188;28;20186;-75
2022/12/24 09:28:17;;;;;;;8.20;2.85;;;17.20;58.00;;;;;;5053004;28;20194;-75
2022/12/24 09:30:42;;;;;;;8.13;2.92;;;17.30;58.00;;;;;;5052540;28;20171;-75
2022/12/24 09:33:08;;;;;;;7.93;2.60;;;17.40;57.90;;;;;;5052218;28;20171;-74
2022/12/24 09:35:36;;;;;;;7.15;2.65;;;17.60;57.90;;;;;;5052383;28;20513;-75
2022/12/24 09:38:01;;;;;;;4.90;2.55;;;17.70;57.80;;;;;;5051529;28;20595;-73
2022/12/24 09:40:45;;;;;;;7.35;2.83;;;17.90;57.40;;;;;;5051844;28;20722;-75
2022/12/24 09:43:17;;;;;;;6.88;2.92;;;18.10;57.00;;;;;;5052859;28;20270;-74
2022/12/24 09:46:16;;;;;;;6.95;2.78;;;18.30;57.00;;;;;;5051136;28;20175;-75
2022/12/24 09:48:45;;;;;;;7.47;2.70;;;18.50;56.50;;;;;;5057505;28;20260;-75
2022/12/24 09:51:35;;;;;;;5.63;2.40;;;18.80;56.00;;;;;;5047491;28;20171;-75
2022/12/24 09:54:03;;;;;;;4.50;2.20;;;19.00;55.40;;;;;;5056420;28;20700;-77
2022/12/24 09:56:39;;;;;;;6.38;2.58;;;19.10;55.20;;;;;;5074863;28;20179;-76
2022/12/24 09:59:08;;;;;;;3.53;2.15;;;19.30;55.00;;;;;;5076909;28;20182;-76
2022/12/24 10:01:34;;;;;;;6.45;2.45;;;19.30;54.70;;;;;;5074599;28;20299;-77
2022/12/24 10:04:03;;;;;;;6.47;2.80;;;19.30;54.60;;;;;;5064171;28;20236;-75
2022/12/24 10:06:35;;;;;;;9.02;2.63;;;19.30;54.60;;;;;;5056563;28;20175;-75
2022/12/24 10:09:12;;;;;;;5.95;2.50;;;19.30;54.50;;;;;;5054573;28;20171;-73
2022/12/24 10:11:54;;;;;;;7.57;3.10;;;19.40;54.40;;;;;;5056358;28;20182;-76
2022/12/24 10:14:37;;;;;;;4.72;2.33;;;19.40;54.40;;;;;;5056195;28;20171;-75
2022/12/24 10:17:15;;;;;;;5.43;2.58;;;19.40;54.30;;;;;;5055332;28;20195;-74
2022/12/24 10:19:47;;;;;;;6.72;2.55;;;19.50;54.30;;;;;;5054555;28;20579;-75
2022/12/24 10:22:24;;;;;;;6.05;2.53;;;19.40;54.30;;;;;;5055491;28;20219;-75
2022/12/24 10:25:13;;;;;;;4.38;2.17;;;19.40;54.30;;;;;;5054713;28;20175;-75
2022/12/24 10:27:41;;;;;;;5.15;2.45;;;19.40;54.30;;;;;;5052795;28;20194;-75
2022/12/24 10:30:18;;;;;;;5.68;2.55;;;19.40;54.30;;;;;;5055367;28;20182;-76
2022/12/24 10:32:44;;;;;;;5.35;2.33;;;19.40;54.40;;;;;;5055793;28;20187;-73
2022/12/24 10:35:13;;;;;;;6.93;2.60;;;19.30;54.50;;;;;;5054821;28;20176;-74
2022/12/24 10:37:39;;;;;;;6.22;2.55;;;19.20;54.70;;;;;;5054950;28;20228;-74
2022/12/24 10:40:05;;;;;;;5.53;2.20;;;19.10;54.90;;;;;;5054646;28;20175;-74
2022/12/24 10:42:37;;;;;;;4.53;2.40;;;19.00;54.90;;;;;;5054253;28;20182;-75
2022/12/24 10:45:05;;;;;;;6.40;2.55;;;19.00;55.00;;;;;;5053803;28;20748;-75
2022/12/24 10:47:32;;;;;;;4.15;2.28;;;18.90;55.20;;;;;;5055815;28;20262;-76
2022/12/24 10:50:04;;;;;;;5.70;2.67;;;18.90;55.30;;;;;;5055073;28;20179;-77
2022/12/24 10:52:32;;;;;;;5.88;2.65;;;18.80;55.30;;;;;;5055543;28;20183;-75
2022/12/24 10:55:10;;;;;;;5.35;2.95;;;18.80;55.40;;;;;;5048227;28;20178;-76
2022/12/24 10:57:35;;;;;;;5.28;2.25;;;18.80;55.40;;;;;;5074753;28;20527;-77
2022/12/24 11:00:02;;;;;;;6.80;2.80;;;18.80;55.50;;;;;;5075308;28;20621;-76
2022/12/24 11:02:35;;;;;;;6.47;2.88;;;18.80;55.50;;;;;;5074467;28;20232;-76
2022/12/24 11:05:04;;;;;;;6.72;2.75;;;18.70;55.50;;;;;;5073590;28;20182;-76
2022/12/24 11:07:30;;;;;;;5.72;3.00;;;18.70;55.60;;;;;;5074311;28;20621;-74
2022/12/24 11:09:56;;;;;;;6.72;2.42;;;18.80;55.70;;;;;;5074247;28;20182;-76
2022/12/24 11:12:24;;;;;;;5.22;2.70;;;18.80;55.60;;;;;;5074691;28;20174;-77
2022/12/24 11:15:17;;;;;;;4.75;2.47;;;18.80;55.50;;;;;;5057121;28;20174;-75
2022/12/24 11:18:00;;;;;;;6.80;2.15;;;18.80;55.50;;;;;;5075062;28;20183;-75
2022/12/24 11:20:29;;;;;;;8.52;2.83;;;18.90;55.40;;;;;;5074309;28;20202;-75
2022/12/24 11:22:54;;;;;;;4.60;2.70;;;18.90;55.40;;;;;;5074860;28;20224;-74
2022/12/24 11:25:28;;;;;;;7.68;2.30;;;18.90;55.40;;;;;;5074315;28;20167;-76
2022/12/24 11:27:54;;;;;;;8.15;2.70;;;18.90;55.40;;;;;;5057360;28;20179;-74
2022/12/24 11:30:32;;;;;;;6.38;2.60;;;18.80;55.40;;;;;;5073886;28;20249;-74
2022/12/24 11:33:01;;;;;;;6.00;2.42;;;18.80;55.40;;;;;;5073193;28;20522;-74
2022/12/24 11:35:27;;;;;;;5.93;2.30;;;18.70;55.50;;;;;;5075069;28;20167;-74
2022/12/24 11:37:59;;;;;;;4.05;2.20;;;18.80;55.60;;;;;;5073607;28;20213;-73
2022/12/24 11:40:27;;;;;;;5.55;2.38;;;18.70;55.70;;;;;;5074051;28;20198;-73
2022/12/24 11:42:52;;;;;;;5.43;2.40;;;18.70;55.70;;;;;;5073169;28;20190;-73
2022/12/24 11:45:23;;;;;;;5.25;2.08;;;18.70;55.70;;;;;;5056997;28;20167;-74
2022/12/24 11:47:48;;;;;;;4.47;2.22;;;18.80;55.50;;;;;;5072531;28;20179;-74
2022/12/24 11:50:26;;;;;;;5.63;2.45;;;18.80;55.40;;;;;;5074755;28;20247;-74
2022/12/24 11:53:02;;;;;;;6.95;2.40;;;18.90;55.40;;;;;;5074332;28;20255;-75
2022/12/24 11:55:45;;;;;;;7.07;2.75;;;18.80;55.30;;;;;;5059110;28;20221;-73
2022/12/24 11:58:51;;;;;;;6.35;2.35;;;18.80;55.40;;;;;;5053332;28;20179;-75
2022/12/24 12:01:34;;;;;;;6.25;2.30;;;18.80;55.40;;;;;;5014704;28;20682;-74
2022/12/24 12:04:11;;;;;;;6.68;3.00;;;18.80;55.50;;;;;;5050312;28;20191;-73
2022/12/24 12:06:40;;;;;;;4.55;2.25;;;18.70;55.50;;;;;;5036412;28;20175;-73
2022/12/24 12:09:13;;;;;;;5.40;2.75;;;18.70;55.60;;;;;;5052231;28;20649;-74
2022/12/24 12:11:40;;;;;;;5.72;2.50;;;18.70;55.60;;;;;;5052772;28;20624;-69
2022/12/24 12:14:07;;;;;;;8.80;3.22;;;18.80;55.60;;;;;;5052911;28;20683;-66
2022/12/24 12:17:02;;;;;;;5.97;2.28;;;18.80;55.50;;;;;;5052999;28;20242;-65
2022/12/24 12:19:31;;;;;;;5.90;2.47;;;18.90;55.60;;;;;;5053035;28;20171;-69
2022/12/24 12:21:57;;;;;;;6.50;2.35;;;18.80;55.90;;;;;;5053339;28;20215;-70
2022/12/24 12:24:25;;;;;;;4.60;2.10;;;18.80;56.00;;;;;;5052788;28;20178;-74
2022/12/24 12:27:24;;;;;;;6.22;2.40;;;18.80;56.10;;;;;;5053470;28;20199;-72
2022/12/24 12:29:54;;;;;;;6.90;2.75;;;18.80;56.10;;;;;;5052262;28;20229;-73
2022/12/24 12:32:36;;;;;;;7.40;2.33;;;18.70;56.20;;;;;;5052697;28;20183;-72
2022/12/24 12:35:16;;;;;;;6.80;2.35;;;18.70;56.20;;;;;;5052473;28;20541;-72
2022/12/24 12:37:44;;;;;;;4.53;2.35;;;18.70;56.30;;;;;;5051538;28;20638;-73
2022/12/24 12:40:14;;;;;;;10.18;2.75;;;18.70;56.30;;;;;;5052480;28;20614;-71
2022/12/24 12:42:39;;;;;;;6.88;2.85;;;18.70;56.40;;;;;;5051606;28;20187;-73
2022/12/24 12:45:28;;;;;;;6.22;2.50;;;18.70;56.50;;;;;;5053773;28;20672;-73
2022/12/24 12:48:32;;;;;;;6.80;2.38;;;18.70;56.40;;;;;;5052167;28;20260;-67
2022/12/24 12:51:06;;;;;;;7.53;2.80;;;18.70;56.40;;;;;;5051722;28;20626;-67
2022/12/24 12:53:49;;;;;;;9.50;2.78;;;18.70;56.50;;;;;;5051999;28;20330;-69
2022/12/24 12:56:31;;;;;;;5.65;2.45;;;18.70;56.60;;;;;;5051674;28;20195;-71
2022/12/24 12:59:11;;;;;;;8.15;2.88;;;18.60;56.70;;;;;;5053285;28;20179;-72
2022/12/24 13:02:10;;;;;;;4.28;2.20;;;18.60;56.80;;;;;;5051849;28;20736;-74
2022/12/24 13:05:15;;;;;;;4.00;2.20;;;18.60;56.90;;;;;;5052154;28;20178;-73